Date,TemperatureHighF,TemperatureAvgF,TemperatureLowF,DewpointHighF,DewpointAvgF,DewpointLowF,HumidityHigh,HumidityAvg,HumidityLow,PressureMaxIn,PressureMinIn,WindSpeedMaxMPH,WindSpeedAvgMPH,GustSpeedMaxMPH,PrecipitationSumIn
2013-3-1,64.8,60.9,57.2,56.8,51.4,47.0,88,71,59,29.93,29.84,8,1,8,0.00
2013-3-2,66.0,56.8,47.1,50.1,42.7,36.0,88,60,43,29.98,29.90,14,3,14,0.00
2013-3-3,61.4,52.9,46.7,44.1,41.5,37.0,88,66,48,30.09,29.91,15,2,15,0.00
2013-3-4,68.0,52.4,37.6,43.6,37.1,29.9,91,60,26,30.16,30.06,12,2,12,0.00
2013-3-5,74.8,60.8,44.9,59.6,52.3,43.2,97,76,53,30.13,30.02,11,1,11,0.00
2013-3-6,76.8,63.5,52.5,64.6,51.6,34.0,96,69,29,30.04,29.89,12,2,12,0.00
2013-3-7,71.1,57.6,46.4,54.9,45.3,35.4,94,65,40,30.13,30.02,10,2,10,0.00
2013-3-8,76.2,60.7,47.6,54.7,49.8,42.5,97,72,32,30.15,30.04,8,1,8,0.00
2013-3-9,75.5,63.0,50.0,59.4,53.4,47.9,97,73,53,30.14,30.04,12,1,12,0.00
2013-3-10,75.3,69.1,61.6,60.6,56.6,52.7,75,65,53,30.11,30.01,13,2,13,0.00
2013-3-11,77.8,70.7,66.6,62.7,60.3,57.9,81,70,53,30.06,29.90,14,3,14,0.00
2013-3-12,81.3,73.6,65.9,69.8,65.6,61.8,89,76,64,29.94,29.85,13,2,13,0.00
2013-3-13,69.5,61.4,55.9,65.5,57.5,52.7,92,87,76,30.04,29.92,8,2,8,0.00
2013-3-14,71.1,60.7,51.8,51.8,46.6,40.6,92,62,34,30.15,30.03,13,2,13,0.00
2013-3-15,73.3,61.2,49.4,53.7,49.6,43.8,89,67,40,30.19,30.09,12,1,12,0.00
2013-3-16,74.8,62.7,49.3,56.5,53.0,47.9,95,73,46,30.13,30.02,13,1,13,0.00
2013-3-17,75.0,64.5,53.8,62.4,57.7,52.1,97,80,60,30.10,29.97,13,1,13,0.00
2013-3-18,80.5,69.5,60.8,69.7,64.6,58.4,97,85,66,30.02,29.90,14,2,14,0.58
2013-3-19,78.8,71.2,64.6,69.3,66.7,63.0,96,86,67,29.95,29.77,12,1,12,0.00
2013-3-20,83.5,71.2,60.9,70.1,63.8,58.6,98,79,55,29.92,29.74,9,1,10,0.01
2013-3-21,75.8,65.2,53.2,61.6,53.9,46.6,93,70,37,29.89,29.76,8,2,8,0.00
2013-3-22,75.4,64.6,50.5,69.2,58.0,48.7,98,81,60,29.95,29.84,14,2,14,0.00
2013-3-23,83.9,73.3,68.9,74.9,70.3,67.7,97,91,67,29.93,29.85,10,0,10,0.01
2013-3-24,89.1,80.4,71.0,74.0,70.7,65.9,96,74,56,29.83,29.61,16,3,20,0.72
2013-3-25,78.5,71.8,62.7,72.5,59.5,37.8,97,69,33,29.93,29.68,11,2,11,0.01
2013-3-26,67.0,59.6,50.8,42.8,38.4,31.3,61,46,29,30.15,29.92,13,4,13,0.00
2013-3-27,69.2,55.8,45.3,47.7,40.7,33.4,87,58,32,30.19,30.11,8,2,10,0.00
2013-3-28,72.5,58.6,46.3,53.7,45.1,36.3,89,64,32,30.21,30.10,9,1,9,0.00
2013-3-29,75.3,61.4,48.6,55.2,50.1,43.1,92,69,45,30.23,30.14,9,1,10,0.00
2013-3-30,74.6,63.3,51.2,58.9,52.4,49.2,97,70,43,30.20,30.10,12,1,12,0.00
2013-3-31,79.0,68.7,54.7,66.2,60.9,53.0,97,77,58,30.13,29.98,13,2,13,0.00